sensor_id;sensor_type;location;lat;lon;timestamp;temperature;humidity
11264;DHT22;5689;48.798;9.070;2023-06-24T00:01:59;16.70;99.90
11264;DHT22;5689;48.798;9.070;2023-06-24T00:04:29;16.60;99.90
11264;DHT22;5689;48.798;9.070;2023-06-24T00:06:57;16.50;99.90
11264;DHT22;5689;48.798;9.070;2023-06-24T00:09:26;16.40;99.90
11264;DHT22;5689;48.798;9.070;2023-06-24T00:11:54;16.40;99.90
11264;DHT22;5689;48.798;9.070;2023-06-24T00:14:23;16.30;99.90
11264;DHT22;5689;48.798;9.070;2023-06-24T00:16:53;16.40;99.90
11264;DHT22;5689;48.798;9.070;2023-06-24T00:19:24;16.20;99.90
11264;DHT22;5689;48.798;9.070;2023-06-24T00:21:53;16.20;99.90
11264;DHT22;5689;48.798;9.070;2023-06-24T00:24:22;16.00;99.90
11264;DHT22;5689;48.798;9.070;2023-06-24T00:26:52;16.00;99.90
11264;DHT22;5689;48.798;9.070;2023-06-24T00:29:20;16.10;99.90
11264;DHT22;5689;48.798;9.070;2023-06-24T00:31:48;16.10;99.90
11264;DHT22;5689;48.798;9.070;2023-06-24T00:34:16;16.00;99.90
11264;DHT22;5689;48.798;9.070;2023-06-24T00:36:46;15.90;99.90
11264;DHT22;5689;48.798;9.070;2023-06-24T00:39:18;15.60;99.90
11264;DHT22;5689;48.798;9.070;2023-06-24T00:41:46;15.60;99.90
11264;DHT22;5689;48.798;9.070;2023-06-24T00:44:14;15.80;99.90
11264;DHT22;5689;48.798;9.070;2023-06-24T00:46:42;15.90;99.90
11264;DHT22;5689;48.798;9.070;2023-06-24T00:49:10;16.00;99.90
11264;DHT22;5689;48.798;9.070;2023-06-24T00:51:41;15.90;99.90
11264;DHT22;5689;48.798;9.070;2023-06-24T00:54:18;15.70;99.90
11264;DHT22;5689;48.798;9.070;2023-06-24T00:56:46;15.60;99.90
11264;DHT22;5689;48.798;9.070;2023-06-24T00:59:16;15.60;99.90
11264;DHT22;5689;48.798;9.070;2023-06-24T01:01:46;15.70;99.90
11264;DHT22;5689;48.798;9.070;2023-06-24T01:04:14;15.60;99.90
11264;DHT22;5689;48.798;9.070;2023-06-24T01:06:43;15.60;99.90
11264;DHT22;5689;48.798;9.070;2023-06-24T01:09:12;15.60;99.90
11264;DHT22;5689;48.798;9.070;2023-06-24T01:11:41;15.50;99.90
11264;DHT22;5689;48.798;9.070;2023-06-24T01:14:09;15.40;99.90
11264;DHT22;5689;48.798;9.070;2023-06-24T01:16:44;15.40;99.90
11264;DHT22;5689;48.798;9.070;2023-06-24T01:19:33;15.40;99.90
11264;DHT22;5689;48.798;9.070;2023-06-24T01:22:10;15.50;99.90
11264;DHT22;5689;48.798;9.070;2023-06-24T01:24:51;15.40;99.90
11264;DHT22;5689;48.798;9.070;2023-06-24T01:27:56;15.50;99.90
11264;DHT22;5689;48.798;9.070;2023-06-24T01:30:51;15.30;99.90
11264;DHT22;5689;48.798;9.070;2023-06-24T01:33:26;15.20;99.90
11264;DHT22;5689;48.798;9.070;2023-06-24T01:35:58;15.30;99.90
11264;DHT22;5689;48.798;9.070;2023-06-24T01:38:31;15.20;99.90
11264;DHT22;5689;48.798;9.070;2023-06-24T01:41:03;15.10;99.90
11264;DHT22;5689;48.798;9.070;2023-06-24T01:43:33;15.30;99.90
11264;DHT22;5689;48.798;9.070;2023-06-24T01:46:03;15.20;99.90
11264;DHT22;5689;48.798;9.070;2023-06-24T01:48:36;15.20;99.90
11264;DHT22;5689;48.798;9.070;2023-06-24T01:51:10;15.00;99.90
11264;DHT22;5689;48.798;9.070;2023-06-24T01:53:42;14.90;99.90
11264;DHT22;5689;48.798;9.070;2023-06-24T01:56:14;14.80;99.90
11264;DHT22;5689;48.798;9.070;2023-06-24T01:58:45;14.70;99.90
11264;DHT22;5689;48.798;9.070;2023-06-24T02:01:15;14.70;99.90
11264;DHT22;5689;48.798;9.070;2023-06-24T02:03:47;14.70;99.90
11264;DHT22;5689;48.798;9.070;2023-06-24T02:06:18;14.70;99.90
11264;DHT22;5689;48.798;9.070;2023-06-24T02:08:49;14.80;99.90
11264;DHT22;5689;48.798;9.070;2023-06-24T02:11:19;14.90;99.90
11264;DHT22;5689;48.798;9.070;2023-06-24T02:13:48;14.80;99.90
11264;DHT22;5689;48.798;9.070;2023-06-24T02:16:17;14.90;99.90
11264;DHT22;5689;48.798;9.070;2023-06-24T02:18:48;14.80;99.90
11264;DHT22;5689;48.798;9.070;2023-06-24T02:21:17;14.70;99.90
11264;DHT22;5689;48.798;9.070;2023-06-24T02:23:47;14.60;99.90
11264;DHT22;5689;48.798;9.070;2023-06-24T02:26:16;14.60;99.90
11264;DHT22;5689;48.798;9.070;2023-06-24T02:28:45;14.70;99.90
11264;DHT22;5689;48.798;9.070;2023-06-24T02:31:15;14.70;99.90
11264;DHT22;5689;48.798;9.070;2023-06-24T02:33:43;14.60;99.90
11264;DHT22;5689;48.798;9.070;2023-06-24T02:36:12;14.50;99.90
11264;DHT22;5689;48.798;9.070;2023-06-24T02:38:40;14.40;99.90
11264;DHT22;5689;48.798;9.070;2023-06-24T02:41:08;14.50;99.90
11264;DHT22;5689;48.798;9.070;2023-06-24T02:43:36;14.70;99.90
11264;DHT22;5689;48.798;9.070;2023-06-24T02:46:05;14.60;99.90
11264;DHT22;5689;48.798;9.070;2023-06-24T02:48:37;14.60;99.90
11264;DHT22;5689;48.798;9.070;2023-06-24T02:51:07;14.60;99.90
11264;DHT22;5689;48.798;9.070;2023-06-24T02:53:38;14.50;99.90
11264;DHT22;5689;48.798;9.070;2023-06-24T02:56:10;14.40;99.90
11264;DHT22;5689;48.798;9.070;2023-06-24T02:58:42;14.50;99.90
11264;DHT22;5689;48.798;9.070;2023-06-24T03:01:19;14.40;99.90
11264;DHT22;5689;48.798;9.070;2023-06-24T03:03:53;14.60;99.90
11264;DHT22;5689;48.798;9.070;2023-06-24T03:06:22;14.60;99.90
11264;DHT22;5689;48.798;9.070;2023-06-24T03:08:56;14.50;99.90
11264;DHT22;5689;48.798;9.070;2023-06-24T03:11:26;14.40;99.90
11264;DHT22;5689;48.798;9.070;2023-06-24T03:13:57;14.30;99.90
11264;DHT22;5689;48.798;9.070;2023-06-24T03:16:34;14.20;99.90
11264;DHT22;5689;48.798;9.070;2023-06-24T03:19:07;14.10;99.90
11264;DHT22;5689;48.798;9.070;2023-06-24T03:21:36;14.10;99.90
11264;DHT22;5689;48.798;9.070;2023-06-24T03:24:12;14.10;99.90
11264;DHT22;5689;48.798;9.070;2023-06-24T03:26:42;14.10;99.90
11264;DHT22;5689;48.798;9.070;2023-06-24T03:29:12;14.10;99.90
11264;DHT22;5689;48.798;9.070;2023-06-24T03:31:54;14.20;99.90
11264;DHT22;5689;48.798;9.070;2023-06-24T03:34:24;14.30;99.90
11264;DHT22;5689;48.798;9.070;2023-06-24T03:36:54;14.40;99.90
11264;DHT22;5689;48.798;9.070;2023-06-24T03:39:23;14.50;99.90
11264;DHT22;5689;48.798;9.070;2023-06-24T03:41:52;14.50;99.90
11264;DHT22;5689;48.798;9.070;2023-06-24T03:44:20;14.50;99.90
11264;DHT22;5689;48.798;9.070;2023-06-24T03:46:47;14.40;99.90
11264;DHT22;5689;48.798;9.070;2023-06-24T03:49:15;14.60;99.90
11264;DHT22;5689;48.798;9.070;2023-06-24T03:51:43;14.60;99.90
11264;DHT22;5689;48.798;9.070;2023-06-24T03:54:11;14.60;99.90
11264;DHT22;5689;48.798;9.070;2023-06-24T03:56:41;14.60;99.90
11264;DHT22;5689;48.798;9.070;2023-06-24T03:59:09;14.70;99.90
11264;DHT22;5689;48.798;9.070;2023-06-24T04:01:37;14.70;99.90
11264;DHT22;5689;48.798;9.070;2023-06-24T04:04:05;14.80;99.90
11264;DHT22;5689;48.798;9.070;2023-06-24T04:06:33;14.90;99.90
11264;DHT22;5689;48.798;9.070;2023-06-24T04:09:01;15.10;99.90
11264;DHT22;5689;48.798;9.070;2023-06-24T04:11:29;15.20;99.90
11264;DHT22;5689;48.798;9.070;2023-06-24T04:14:00;15.10;99.90
11264;DHT22;5689;48.798;9.070;2023-06-24T04:16:28;15.30;99.90
11264;DHT22;5689;48.798;9.070;2023-06-24T04:18:56;15.30;99.90
11264;DHT22;5689;48.798;9.070;2023-06-24T04:21:24;15.30;99.90
11264;DHT22;5689;48.798;9.070;2023-06-24T04:23:53;15.40;99.90
11264;DHT22;5689;48.798;9.070;2023-06-24T04:26:21;15.50;99.90
11264;DHT22;5689;48.798;9.070;2023-06-24T04:28:50;15.60;99.90
11264;DHT22;5689;48.798;9.070;2023-06-24T04:31:19;15.70;99.90
11264;DHT22;5689;48.798;9.070;2023-06-24T04:33:47;15.80;99.90
11264;DHT22;5689;48.798;9.070;2023-06-24T04:36:15;15.90;99.90
11264;DHT22;5689;48.798;9.070;2023-06-24T04:38:43;16.10;99.90
11264;DHT22;5689;48.798;9.070;2023-06-24T04:41:11;16.40;99.90
11264;DHT22;5689;48.798;9.070;2023-06-24T04:43:39;16.50;99.90
11264;DHT22;5689;48.798;9.070;2023-06-24T04:46:07;16.70;99.90
11264;DHT22;5689;48.798;9.070;2023-06-24T04:48:37;16.90;99.90
11264;DHT22;5689;48.798;9.070;2023-06-24T04:51:05;17.20;99.90
11264;DHT22;5689;48.798;9.070;2023-06-24T04:53:33;17.20;99.90
11264;DHT22;5689;48.798;9.070;2023-06-24T04:56:03;17.30;99.90
11264;DHT22;5689;48.798;9.070;2023-06-24T04:58:31;17.40;99.90
11264;DHT22;5689;48.798;9.070;2023-06-24T05:00:59;17.40;99.90
11264;DHT22;5689;48.798;9.070;2023-06-24T05:03:27;17.50;99.90
11264;DHT22;5689;48.798;9.070;2023-06-24T05:05:56;17.60;99.90
11264;DHT22;5689;48.798;9.070;2023-06-24T05:08:27;17.40;99.90
11264;DHT22;5689;48.798;9.070;2023-06-24T05:10:55;17.40;99.90
11264;DHT22;5689;48.798;9.070;2023-06-24T05:13:23;17.60;99.90
11264;DHT22;5689;48.798;9.070;2023-06-24T05:15:51;17.80;99.90
11264;DHT22;5689;48.798;9.070;2023-06-24T05:18:19;18.00;99.90
11264;DHT22;5689;48.798;9.070;2023-06-24T05:20:47;18.00;99.90
11264;DHT22;5689;48.798;9.070;2023-06-24T05:23:16;18.20;99.90
11264;DHT22;5689;48.798;9.070;2023-06-24T05:25:44;18.20;99.90
11264;DHT22;5689;48.798;9.070;2023-06-24T05:28:12;18.30;99.90
11264;DHT22;5689;48.798;9.070;2023-06-24T05:30:41;18.50;99.90
11264;DHT22;5689;48.798;9.070;2023-06-24T05:33:09;18.70;99.90
11264;DHT22;5689;48.798;9.070;2023-06-24T05:35:37;18.90;99.90
11264;DHT22;5689;48.798;9.070;2023-06-24T05:38:07;19.30;99.90
11264;DHT22;5689;48.798;9.070;2023-06-24T05:40:36;19.50;99.90
11264;DHT22;5689;48.798;9.070;2023-06-24T05:43:04;19.50;99.90
11264;DHT22;5689;48.798;9.070;2023-06-24T05:45:32;19.50;99.90
11264;DHT22;5689;48.798;9.070;2023-06-24T05:48:01;19.50;99.90
11264;DHT22;5689;48.798;9.070;2023-06-24T05:50:29;19.60;99.90
11264;DHT22;5689;48.798;9.070;2023-06-24T05:52:58;19.70;99.90
11264;DHT22;5689;48.798;9.070;2023-06-24T05:55:26;19.60;99.90
11264;DHT22;5689;48.798;9.070;2023-06-24T05:57:55;19.60;99.90
11264;DHT22;5689;48.798;9.070;2023-06-24T06:00:23;19.80;99.90
11264;DHT22;5689;48.798;9.070;2023-06-24T06:02:51;20.00;99.90
11264;DHT22;5689;48.798;9.070;2023-06-24T06:05:19;20.30;99.90
11264;DHT22;5689;48.798;9.070;2023-06-24T06:07:47;20.50;99.90
11264;DHT22;5689;48.798;9.070;2023-06-24T06:10:15;20.80;99.90
11264;DHT22;5689;48.798;9.070;2023-06-24T06:12:44;21.00;99.90
11264;DHT22;5689;48.798;9.070;2023-06-24T06:15:13;21.40;99.90
11264;DHT22;5689;48.798;9.070;2023-06-24T06:17:41;21.30;99.90
11264;DHT22;5689;48.798;9.070;2023-06-24T06:20:10;21.60;99.90
11264;DHT22;5689;48.798;9.070;2023-06-24T06:22:38;21.50;99.90
11264;DHT22;5689;48.798;9.070;2023-06-24T06:25:07;21.30;99.90
11264;DHT22;5689;48.798;9.070;2023-06-24T06:27:35;22.10;99.80
11264;DHT22;5689;48.798;9.070;2023-06-24T06:30:03;22.20;99.50
11264;DHT22;5689;48.798;9.070;2023-06-24T06:32:33;22.50;98.30
11264;DHT22;5689;48.798;9.070;2023-06-24T06:35:01;22.50;97.80
11264;DHT22;5689;48.798;9.070;2023-06-24T06:37:29;22.90;96.70
11264;DHT22;5689;48.798;9.070;2023-06-24T06:39:57;23.60;95.50
11264;DHT22;5689;48.798;9.070;2023-06-24T06:42:26;23.70;94.20
11264;DHT22;5689;48.798;9.070;2023-06-24T06:44:54;24.00;93.20
11264;DHT22;5689;48.798;9.070;2023-06-24T06:47:22;23.90;92.60
11264;DHT22;5689;48.798;9.070;2023-06-24T06:49:52;23.70;92.70
11264;DHT22;5689;48.798;9.070;2023-06-24T06:52:20;23.90;92.50
11264;DHT22;5689;48.798;9.070;2023-06-24T06:54:47;24.50;91.90
11264;DHT22;5689;48.798;9.070;2023-06-24T06:57:15;24.40;91.70
11264;DHT22;5689;48.798;9.070;2023-06-24T06:59:43;24.70;91.20
11264;DHT22;5689;48.798;9.070;2023-06-24T07:02:11;25.10;90.80
11264;DHT22;5689;48.798;9.070;2023-06-24T07:04:39;24.80;89.60
11264;DHT22;5689;48.798;9.070;2023-06-24T07:07:09;25.30;89.10
11264;DHT22;5689;48.798;9.070;2023-06-24T07:09:37;25.20;88.60
11264;DHT22;5689;48.798;9.070;2023-06-24T07:12:06;26.00;85.80
11264;DHT22;5689;48.798;9.070;2023-06-24T07:14:34;26.30;84.10
11264;DHT22;5689;48.798;9.070;2023-06-24T07:17:02;26.50;82.90
11264;DHT22;5689;48.798;9.070;2023-06-24T07:19:30;26.80;82.60
11264;DHT22;5689;48.798;9.070;2023-06-24T07:21:58;26.90;80.90
11264;DHT22;5689;48.798;9.070;2023-06-24T07:24:27;26.80;81.50
11264;DHT22;5689;48.798;9.070;2023-06-24T07:26:55;27.20;79.20
11264;DHT22;5689;48.798;9.070;2023-06-24T07:29:23;27.20;80.50
11264;DHT22;5689;48.798;9.070;2023-06-24T07:31:51;27.70;78.50
11264;DHT22;5689;48.798;9.070;2023-06-24T07:34:19;28.20;76.60
11264;DHT22;5689;48.798;9.070;2023-06-24T07:36:47;28.30;76.50
11264;DHT22;5689;48.798;9.070;2023-06-24T07:39:17;28.70;74.70
11264;DHT22;5689;48.798;9.070;2023-06-24T07:41:46;29.00;74.40
11264;DHT22;5689;48.798;9.070;2023-06-24T07:44:14;29.60;72.00
11264;DHT22;5689;48.798;9.070;2023-06-24T07:46:43;29.80;71.00
11264;DHT22;5689;48.798;9.070;2023-06-24T07:49:11;30.10;70.30
11264;DHT22;5689;48.798;9.070;2023-06-24T07:51:39;30.30;68.50
11264;DHT22;5689;48.798;9.070;2023-06-24T07:54:07;30.00;68.30
11264;DHT22;5689;48.798;9.070;2023-06-24T07:56:35;30.20;68.20
11264;DHT22;5689;48.798;9.070;2023-06-24T07:59:04;29.80;68.50
11264;DHT22;5689;48.798;9.070;2023-06-24T08:01:32;29.90;70.20
11264;DHT22;5689;48.798;9.070;2023-06-24T08:04:00;30.00;69.40
11264;DHT22;5689;48.798;9.070;2023-06-24T08:06:28;30.60;67.40
11264;DHT22;5689;48.798;9.070;2023-06-24T08:08:56;30.90;67.10
11264;DHT22;5689;48.798;9.070;2023-06-24T08:11:24;30.50;67.50
11264;DHT22;5689;48.798;9.070;2023-06-24T08:13:52;30.40;66.10
11264;DHT22;5689;48.798;9.070;2023-06-24T08:16:21;30.10;66.50
11264;DHT22;5689;48.798;9.070;2023-06-24T08:18:49;29.00;66.30
11264;DHT22;5689;48.798;9.070;2023-06-24T08:21:17;28.50;68.00
11264;DHT22;5689;48.798;9.070;2023-06-24T08:23:46;30.20;66.80
11264;DHT22;5689;48.798;9.070;2023-06-24T08:26:15;31.10;65.70
11264;DHT22;5689;48.798;9.070;2023-06-24T08:28:43;31.50;63.20
11264;DHT22;5689;48.798;9.070;2023-06-24T08:31:11;32.50;61.10
11264;DHT22;5689;48.798;9.070;2023-06-24T08:33:43;31.90;59.00
11264;DHT22;5689;48.798;9.070;2023-06-24T08:36:11;32.10;59.00
11264;DHT22;5689;48.798;9.070;2023-06-24T08:38:39;32.10;58.10
11264;DHT22;5689;48.798;9.070;2023-06-24T08:41:07;30.30;59.10
11264;DHT22;5689;48.798;9.070;2023-06-24T08:43:35;29.80;60.30
11264;DHT22;5689;48.798;9.070;2023-06-24T08:46:05;30.30;61.40
11264;DHT22;5689;48.798;9.070;2023-06-24T08:48:34;30.60;60.60
11264;DHT22;5689;48.798;9.070;2023-06-24T08:51:08;31.20;60.10
11264;DHT22;5689;48.798;9.070;2023-06-24T08:53:38;31.10;60.00
11264;DHT22;5689;48.798;9.070;2023-06-24T08:56:06;31.70;59.70
11264;DHT22;5689;48.798;9.070;2023-06-24T08:58:34;32.80;57.30
11264;DHT22;5689;48.798;9.070;2023-06-24T09:01:02;33.30;56.30
11264;DHT22;5689;48.798;9.070;2023-06-24T09:03:31;32.40;55.40
11264;DHT22;5689;48.798;9.070;2023-06-24T09:05:58;33.00;53.90
11264;DHT22;5689;48.798;9.070;2023-06-24T09:08:28;33.10;54.50
11264;DHT22;5689;48.798;9.070;2023-06-24T09:10:56;31.90;56.50
11264;DHT22;5689;48.798;9.070;2023-06-24T09:13:34;32.00;57.30
11264;DHT22;5689;48.798;9.070;2023-06-24T09:16:11;33.20;55.00
11264;DHT22;5689;48.798;9.070;2023-06-24T09:18:40;33.20;55.60
11264;DHT22;5689;48.798;9.070;2023-06-24T09:21:10;32.50;56.00
11264;DHT22;5689;48.798;9.070;2023-06-24T09:23:40;32.00;55.20
11264;DHT22;5689;48.798;9.070;2023-06-24T09:26:10;32.00;55.70
11264;DHT22;5689;48.798;9.070;2023-06-24T09:28:38;31.80;55.10
11264;DHT22;5689;48.798;9.070;2023-06-24T09:31:07;31.70;55.00
11264;DHT22;5689;48.798;9.070;2023-06-24T09:33:44;31.90;56.40
11264;DHT22;5689;48.798;9.070;2023-06-24T09:36:12;30.50;55.70
11264;DHT22;5689;48.798;9.070;2023-06-24T09:38:43;30.50;56.20
11264;DHT22;5689;48.798;9.070;2023-06-24T09:41:12;32.60;54.00
11264;DHT22;5689;48.798;9.070;2023-06-24T09:43:42;33.50;53.80
11264;DHT22;5689;48.798;9.070;2023-06-24T09:46:11;33.70;52.50
11264;DHT22;5689;48.798;9.070;2023-06-24T09:48:39;33.20;53.30
11264;DHT22;5689;48.798;9.070;2023-06-24T09:51:08;33.30;53.00
11264;DHT22;5689;48.798;9.070;2023-06-24T09:53:36;32.70;52.70
11264;DHT22;5689;48.798;9.070;2023-06-24T09:56:08;33.70;52.40
11264;DHT22;5689;48.798;9.070;2023-06-24T09:58:37;36.10;50.20
11264;DHT22;5689;48.798;9.070;2023-06-24T10:01:07;37.10;48.80
11264;DHT22;5689;48.798;9.070;2023-06-24T10:03:36;37.10;48.60
11264;DHT22;5689;48.798;9.070;2023-06-24T10:06:05;35.70;49.60
11264;DHT22;5689;48.798;9.070;2023-06-24T10:08:33;35.10;50.20
11264;DHT22;5689;48.798;9.070;2023-06-24T10:11:02;35.80;49.50
11264;DHT22;5689;48.798;9.070;2023-06-24T10:13:31;35.50;49.50
11264;DHT22;5689;48.798;9.070;2023-06-24T10:15:59;34.70;50.00
11264;DHT22;5689;48.798;9.070;2023-06-24T10:18:34;34.10;50.10
11264;DHT22;5689;48.798;9.070;2023-06-24T10:21:03;33.30;49.70
11264;DHT22;5689;48.798;9.070;2023-06-24T10:23:33;33.30;50.80
11264;DHT22;5689;48.798;9.070;2023-06-24T10:26:01;32.40;51.20
11264;DHT22;5689;48.798;9.070;2023-06-24T10:31:53;34.80;47.90
11264;DHT22;5689;48.798;9.070;2023-06-24T10:34:29;32.90;51.50
11264;DHT22;5689;48.798;9.070;2023-06-24T10:37:00;34.30;49.20
11264;DHT22;5689;48.798;9.070;2023-06-24T10:39:36;33.70;49.30
11264;DHT22;5689;48.798;9.070;2023-06-24T10:42:26;34.10;49.70
11264;DHT22;5689;48.798;9.070;2023-06-24T10:44:55;33.10;50.50
11264;DHT22;5689;48.798;9.070;2023-06-24T10:47:26;33.50;51.10
11264;DHT22;5689;48.798;9.070;2023-06-24T10:49:54;32.50;51.20
11264;DHT22;5689;48.798;9.070;2023-06-24T10:52:23;32.10;51.90
11264;DHT22;5689;48.798;9.070;2023-06-24T10:54:53;31.40;51.50
11264;DHT22;5689;48.798;9.070;2023-06-24T10:57:22;31.40;51.90
11264;DHT22;5689;48.798;9.070;2023-06-24T10:59:52;31.80;50.60
11264;DHT22;5689;48.798;9.070;2023-06-24T11:02:22;34.20;48.70
11264;DHT22;5689;48.798;9.070;2023-06-24T11:04:54;32.30;50.60
11264;DHT22;5689;48.798;9.070;2023-06-24T11:07:23;32.70;50.00
11264;DHT22;5689;48.798;9.070;2023-06-24T11:09:52;34.60;48.80
11264;DHT22;5689;48.798;9.070;2023-06-24T11:12:24;34.50;47.50
11264;DHT22;5689;48.798;9.070;2023-06-24T11:14:55;33.40;47.90
11264;DHT22;5689;48.798;9.070;2023-06-24T11:17:24;34.30;47.00
11264;DHT22;5689;48.798;9.070;2023-06-24T11:19:55;35.50;45.80
11264;DHT22;5689;48.798;9.070;2023-06-24T11:22:23;35.50;45.60
11264;DHT22;5689;48.798;9.070;2023-06-24T11:24:52;37.00;43.70
11264;DHT22;5689;48.798;9.070;2023-06-24T11:27:24;38.30;42.30
11264;DHT22;5689;48.798;9.070;2023-06-24T11:29:53;37.10;43.20
11264;DHT22;5689;48.798;9.070;2023-06-24T11:32:21;36.80;42.40
11264;DHT22;5689;48.798;9.070;2023-06-24T11:34:49;35.80;43.80
11264;DHT22;5689;48.798;9.070;2023-06-24T11:37:18;35.80;43.30
11264;DHT22;5689;48.798;9.070;2023-06-24T11:40:01;36.10;41.50
11264;DHT22;5689;48.798;9.070;2023-06-24T11:42:31;35.70;40.40
11264;DHT22;5689;48.798;9.070;2023-06-24T11:45:04;35.50;40.90
11264;DHT22;5689;48.798;9.070;2023-06-24T11:47:33;35.00;42.60
11264;DHT22;5689;48.798;9.070;2023-06-24T11:50:03;36.20;41.10
11264;DHT22;5689;48.798;9.070;2023-06-24T11:52:43;35.80;40.50
11264;DHT22;5689;48.798;9.070;2023-06-24T11:55:14;36.70;40.10
11264;DHT22;5689;48.798;9.070;2023-06-24T11:57:50;35.90;41.10
11264;DHT22;5689;48.798;9.070;2023-06-24T12:00:20;36.20;41.80
11264;DHT22;5689;48.798;9.070;2023-06-24T12:02:50;37.20;41.00
11264;DHT22;5689;48.798;9.070;2023-06-24T12:05:26;35.50;42.70
11264;DHT22;5689;48.798;9.070;2023-06-24T12:07:57;35.30;41.90
11264;DHT22;5689;48.798;9.070;2023-06-24T12:10:25;34.40;43.10
11264;DHT22;5689;48.798;9.070;2023-06-24T12:12:54;36.40;42.10
11264;DHT22;5689;48.798;9.070;2023-06-24T12:15:22;37.40;41.20
11264;DHT22;5689;48.798;9.070;2023-06-24T12:17:50;38.00;40.20
11264;DHT22;5689;48.798;9.070;2023-06-24T12:20:18;37.40;40.10
11264;DHT22;5689;48.798;9.070;2023-06-24T12:22:47;39.60;38.90
11264;DHT22;5689;48.798;9.070;2023-06-24T12:25:17;38.00;40.00
11264;DHT22;5689;48.798;9.070;2023-06-24T12:27:45;35.40;42.80
11264;DHT22;5689;48.798;9.070;2023-06-24T12:30:13;34.10;42.50
11264;DHT22;5689;48.798;9.070;2023-06-24T12:32:43;36.60;41.50
11264;DHT22;5689;48.798;9.070;2023-06-24T12:35:12;36.80;42.00
11264;DHT22;5689;48.798;9.070;2023-06-24T12:37:40;36.70;43.10
11264;DHT22;5689;48.798;9.070;2023-06-24T12:40:08;37.50;42.00
11264;DHT22;5689;48.798;9.070;2023-06-24T12:42:38;35.40;43.70
11264;DHT22;5689;48.798;9.070;2023-06-24T12:45:07;37.50;42.80
11264;DHT22;5689;48.798;9.070;2023-06-24T12:47:35;38.10;41.60
11264;DHT22;5689;48.798;9.070;2023-06-24T12:50:04;37.00;41.60
11264;DHT22;5689;48.798;9.070;2023-06-24T12:52:34;36.70;41.60
11264;DHT22;5689;48.798;9.070;2023-06-24T12:55:04;36.40;43.40
11264;DHT22;5689;48.798;9.070;2023-06-24T12:57:33;37.80;41.30
11264;DHT22;5689;48.798;9.070;2023-06-24T13:00:02;37.50;41.40
11264;DHT22;5689;48.798;9.070;2023-06-24T13:02:32;39.90;40.90
11264;DHT22;5689;48.798;9.070;2023-06-24T13:05:00;41.50;38.00
11264;DHT22;5689;48.798;9.070;2023-06-24T13:07:28;41.30;38.30
11264;DHT22;5689;48.798;9.070;2023-06-24T13:09:56;38.20;40.10
11264;DHT22;5689;48.798;9.070;2023-06-24T13:12:24;35.80;42.70
11264;DHT22;5689;48.798;9.070;2023-06-24T13:14:51;36.30;42.30
11264;DHT22;5689;48.798;9.070;2023-06-24T13:17:21;38.90;39.90
11264;DHT22;5689;48.798;9.070;2023-06-24T13:19:49;40.20;38.60
11264;DHT22;5689;48.798;9.070;2023-06-24T13:22:17;42.30;37.30
11264;DHT22;5689;48.798;9.070;2023-06-24T13:24:45;42.10;36.90
11264;DHT22;5689;48.798;9.070;2023-06-24T13:27:13;41.70;36.60
11264;DHT22;5689;48.798;9.070;2023-06-24T13:29:41;38.20;38.80
11264;DHT22;5689;48.798;9.070;2023-06-24T13:32:09;38.90;39.90
11264;DHT22;5689;48.798;9.070;2023-06-24T13:34:39;39.60;38.00
11264;DHT22;5689;48.798;9.070;2023-06-24T13:37:07;37.80;39.90
11264;DHT22;5689;48.798;9.070;2023-06-24T13:39:35;37.00;40.50
11264;DHT22;5689;48.798;9.070;2023-06-24T13:42:03;38.10;39.30
11264;DHT22;5689;48.798;9.070;2023-06-24T13:44:31;39.40;38.80
11264;DHT22;5689;48.798;9.070;2023-06-24T13:46:59;38.30;39.60
11264;DHT22;5689;48.798;9.070;2023-06-24T13:49:28;37.20;40.60
11264;DHT22;5689;48.798;9.070;2023-06-24T13:51:57;38.20;39.10
11264;DHT22;5689;48.798;9.070;2023-06-24T13:54:26;38.50;38.00
11264;DHT22;5689;48.798;9.070;2023-06-24T13:56:57;39.10;38.80
11264;DHT22;5689;48.798;9.070;2023-06-24T13:59:25;37.80;39.90
11264;DHT22;5689;48.798;9.070;2023-06-24T14:01:53;37.50;40.00
11264;DHT22;5689;48.798;9.070;2023-06-24T14:04:22;35.90;41.50
11264;DHT22;5689;48.798;9.070;2023-06-24T14:06:50;37.50;40.40
11264;DHT22;5689;48.798;9.070;2023-06-24T14:09:21;38.50;39.30
11264;DHT22;5689;48.798;9.070;2023-06-24T14:11:49;38.40;39.90
11264;DHT22;5689;48.798;9.070;2023-06-24T14:14:18;37.30;40.20
11264;DHT22;5689;48.798;9.070;2023-06-24T14:16:46;39.00;38.10
11264;DHT22;5689;48.798;9.070;2023-06-24T14:19:14;38.10;39.60
11264;DHT22;5689;48.798;9.070;2023-06-24T14:21:42;38.70;39.00
11264;DHT22;5689;48.798;9.070;2023-06-24T14:24:10;36.00;40.60
11264;DHT22;5689;48.798;9.070;2023-06-24T14:26:43;36.80;40.30
11264;DHT22;5689;48.798;9.070;2023-06-24T14:29:10;38.00;39.40
11264;DHT22;5689;48.798;9.070;2023-06-24T14:31:38;38.50;38.90
11264;DHT22;5689;48.798;9.070;2023-06-24T14:34:06;37.50;39.00
11264;DHT22;5689;48.798;9.070;2023-06-24T14:36:34;38.80;39.10
11264;DHT22;5689;48.798;9.070;2023-06-24T14:39:03;37.40;39.50
11264;DHT22;5689;48.798;9.070;2023-06-24T14:41:31;34.40;41.30
11264;DHT22;5689;48.798;9.070;2023-06-24T14:44:00;36.40;41.10
11264;DHT22;5689;48.798;9.070;2023-06-24T14:46:28;37.20;38.50
11264;DHT22;5689;48.798;9.070;2023-06-24T14:48:56;38.90;38.50
11264;DHT22;5689;48.798;9.070;2023-06-24T14:51:24;37.90;39.80
11264;DHT22;5689;48.798;9.070;2023-06-24T14:53:54;37.50;40.10
11264;DHT22;5689;48.798;9.070;2023-06-24T14:56:21;37.60;40.30
11264;DHT22;5689;48.798;9.070;2023-06-24T14:58:50;37.50;41.10
11264;DHT22;5689;48.798;9.070;2023-06-24T15:01:19;36.30;42.10
11264;DHT22;5689;48.798;9.070;2023-06-24T15:03:47;34.50;44.20
11264;DHT22;5689;48.798;9.070;2023-06-24T15:06:15;32.70;46.10
11264;DHT22;5689;48.798;9.070;2023-06-24T15:08:43;31.30;48.00
11264;DHT22;5689;48.798;9.070;2023-06-24T15:11:11;31.10;48.50
11264;DHT22;5689;48.798;9.070;2023-06-24T15:13:39;31.50;47.40
11264;DHT22;5689;48.798;9.070;2023-06-24T15:16:07;31.60;47.70
11264;DHT22;5689;48.798;9.070;2023-06-24T15:18:44;31.30;48.00
11264;DHT22;5689;48.798;9.070;2023-06-24T15:21:12;31.50;48.00
11264;DHT22;5689;48.798;9.070;2023-06-24T15:23:47;32.00;48.10
11264;DHT22;5689;48.798;9.070;2023-06-24T15:26:15;32.10;48.00
11264;DHT22;5689;48.798;9.070;2023-06-24T15:28:43;31.00;49.00
11264;DHT22;5689;48.798;9.070;2023-06-24T15:31:10;31.10;49.60
11264;DHT22;5689;48.798;9.070;2023-06-24T15:33:40;30.90;48.80
11264;DHT22;5689;48.798;9.070;2023-06-24T15:36:08;30.40;48.60
11264;DHT22;5689;48.798;9.070;2023-06-24T15:38:36;31.10;48.20
11264;DHT22;5689;48.798;9.070;2023-06-24T15:41:04;31.00;48.50
11264;DHT22;5689;48.798;9.070;2023-06-24T15:43:32;30.60;48.20
11264;DHT22;5689;48.798;9.070;2023-06-24T15:46:00;30.40;49.00
11264;DHT22;5689;48.798;9.070;2023-06-24T15:48:28;31.20;48.30
11264;DHT22;5689;48.798;9.070;2023-06-24T15:50:57;31.20;48.40
11264;DHT22;5689;48.798;9.070;2023-06-24T15:53:26;30.00;49.30
11264;DHT22;5689;48.798;9.070;2023-06-24T15:55:54;30.00;49.80
11264;DHT22;5689;48.798;9.070;2023-06-24T15:58:23;29.80;50.50
11264;DHT22;5689;48.798;9.070;2023-06-24T16:00:50;29.90;50.60
11264;DHT22;5689;48.798;9.070;2023-06-24T16:03:19;30.30;50.10